sensor_id;sensor_type;location;lat;lon;timestamp;P1;durP1;ratioP1;P2;durP2;ratioP2
79616;SDS011;69097;52.132;5.422;2023-07-13T00:00:08;7.03;;;1.60;;
79616;SDS011;69097;52.132;5.422;2023-07-13T00:02:36;10.85;;;1.48;;
79616;SDS011;69097;52.132;5.422;2023-07-13T00:05:03;11.38;;;1.52;;
79616;SDS011;69097;52.132;5.422;2023-07-13T00:07:29;5.28;;;1.00;;
79616;SDS011;69097;52.132;5.422;2023-07-13T00:09:58;9.57;;;1.52;;
79616;SDS011;69097;52.132;5.422;2023-07-13T00:12:33;7.70;;;1.80;;
79616;SDS011;69097;52.132;5.422;2023-07-13T00:15:03;11.48;;;1.92;;
79616;SDS011;69097;52.132;5.422;2023-07-13T00:17:42;5.20;;;1.83;;
79616;SDS011;69097;52.132;5.422;2023-07-13T00:20:12;9.52;;;1.35;;
79616;SDS011;69097;52.132;5.422;2023-07-13T00:22:38;7.15;;;1.15;;
79616;SDS011;69097;52.132;5.422;2023-07-13T00:25:05;8.85;;;1.33;;
79616;SDS011;69097;52.132;5.422;2023-07-13T00:27:32;8.82;;;1.50;;
79616;SDS011;69097;52.132;5.422;2023-07-13T00:29:59;7.47;;;1.00;;
79616;SDS011;69097;52.132;5.422;2023-07-13T00:32:26;7.00;;;1.40;;
79616;SDS011;69097;52.132;5.422;2023-07-13T00:34:55;7.80;;;1.10;;
79616;SDS011;69097;52.132;5.422;2023-07-13T00:37:22;8.23;;;1.25;;
79616;SDS011;69097;52.132;5.422;2023-07-13T00:42:16;8.27;;;1.02;;
79616;SDS011;69097;52.132;5.422;2023-07-13T00:45:00;12.07;;;1.23;;
79616;SDS011;69097;52.132;5.422;2023-07-13T00:47:31;5.28;;;1.00;;
79616;SDS011;69097;52.132;5.422;2023-07-13T00:49:57;4.53;;;1.48;;
79616;SDS011;69097;52.132;5.422;2023-07-13T00:52:25;6.00;;;1.23;;
79616;SDS011;69097;52.132;5.422;2023-07-13T00:54:52;7.28;;;1.15;;
79616;SDS011;69097;52.132;5.422;2023-07-13T00:57:19;7.88;;;1.13;;
79616;SDS011;69097;52.132;5.422;2023-07-13T00:59:49;8.43;;;1.30;;
79616;SDS011;69097;52.132;5.422;2023-07-13T01:02:20;6.93;;;1.00;;
79616;SDS011;69097;52.132;5.422;2023-07-13T01:04:48;6.85;;;1.48;;
79616;SDS011;69097;52.132;5.422;2023-07-13T01:07:14;7.90;;;1.88;;
79616;SDS011;69097;52.132;5.422;2023-07-13T01:09:41;7.72;;;1.13;;
79616;SDS011;69097;52.132;5.422;2023-07-13T01:12:08;7.50;;;1.17;;
79616;SDS011;69097;52.132;5.422;2023-07-13T01:14:34;8.38;;;1.65;;
79616;SDS011;69097;52.132;5.422;2023-07-13T01:17:01;7.47;;;1.27;;
79616;SDS011;69097;52.132;5.422;2023-07-13T01:22:14;8.55;;;2.22;;
79616;SDS011;69097;52.132;5.422;2023-07-13T01:24:45;8.13;;;1.42;;
79616;SDS011;69097;52.132;5.422;2023-07-13T01:27:14;10.90;;;1.85;;
79616;SDS011;69097;52.132;5.422;2023-07-13T01:29:49;6.90;;;1.33;;
79616;SDS011;69097;52.132;5.422;2023-07-13T01:32:20;6.82;;;1.35;;
79616;SDS011;69097;52.132;5.422;2023-07-13T01:34:50;6.35;;;1.05;;
79616;SDS011;69097;52.132;5.422;2023-07-13T01:37:20;8.85;;;1.38;;
79616;SDS011;69097;52.132;5.422;2023-07-13T01:42:14;8.27;;;1.58;;
79616;SDS011;69097;52.132;5.422;2023-07-13T01:44:41;8.23;;;1.40;;
79616;SDS011;69097;52.132;5.422;2023-07-13T01:47:07;7.40;;;1.60;;
79616;SDS011;69097;52.132;5.422;2023-07-13T01:49:34;7.35;;;1.20;;
79616;SDS011;69097;52.132;5.422;2023-07-13T01:52:00;5.18;;;1.33;;
79616;SDS011;69097;52.132;5.422;2023-07-13T01:54:27;5.40;;;1.30;;
79616;SDS011;69097;52.132;5.422;2023-07-13T01:56:53;6.15;;;1.40;;
79616;SDS011;69097;52.132;5.422;2023-07-13T01:59:20;7.72;;;1.75;;
79616;SDS011;69097;52.132;5.422;2023-07-13T02:01:46;9.18;;;1.88;;
79616;SDS011;69097;52.132;5.422;2023-07-13T02:04:14;7.15;;;1.13;;
79616;SDS011;69097;52.132;5.422;2023-07-13T02:06:41;5.57;;;1.10;;
79616;SDS011;69097;52.132;5.422;2023-07-13T02:09:07;5.50;;;1.52;;
79616;SDS011;69097;52.132;5.422;2023-07-13T02:11:34;7.55;;;1.10;;
79616;SDS011;69097;52.132;5.422;2023-07-13T02:14:01;6.32;;;1.77;;
79616;SDS011;69097;52.132;5.422;2023-07-13T02:16:29;11.05;;;1.73;;
79616;SDS011;69097;52.132;5.422;2023-07-13T02:18:57;5.53;;;1.33;;
79616;SDS011;69097;52.132;5.422;2023-07-13T02:21:24;8.63;;;1.52;;
79616;SDS011;69097;52.132;5.422;2023-07-13T02:23:50;8.35;;;1.50;;
79616;SDS011;69097;52.132;5.422;2023-07-13T02:26:17;6.22;;;1.85;;
79616;SDS011;69097;52.132;5.422;2023-07-13T02:28:44;7.32;;;1.02;;
79616;SDS011;69097;52.132;5.422;2023-07-13T02:31:11;6.25;;;1.52;;
79616;SDS011;69097;52.132;5.422;2023-07-13T02:33:39;7.25;;;1.33;;
79616;SDS011;69097;52.132;5.422;2023-07-13T02:36:06;5.95;;;1.42;;
79616;SDS011;69097;52.132;5.422;2023-07-13T02:38:33;8.30;;;1.40;;
79616;SDS011;69097;52.132;5.422;2023-07-13T02:41:03;9.45;;;1.58;;
79616;SDS011;69097;52.132;5.422;2023-07-13T02:43:30;5.53;;;1.42;;
79616;SDS011;69097;52.132;5.422;2023-07-13T02:45:56;6.90;;;1.40;;
79616;SDS011;69097;52.132;5.422;2023-07-13T02:48:26;7.00;;;1.50;;
79616;SDS011;69097;52.132;5.422;2023-07-13T02:50:53;8.48;;;1.50;;
79616;SDS011;69097;52.132;5.422;2023-07-13T02:53:19;7.55;;;1.45;;
79616;SDS011;69097;52.132;5.422;2023-07-13T02:55:47;7.00;;;1.65;;
79616;SDS011;69097;52.132;5.422;2023-07-13T02:58:13;9.75;;;1.70;;
79616;SDS011;69097;52.132;5.422;2023-07-13T03:00:43;12.35;;;2.35;;
79616;SDS011;69097;52.132;5.422;2023-07-13T03:03:13;8.25;;;1.60;;
79616;SDS011;69097;52.132;5.422;2023-07-13T03:05:40;8.13;;;1.75;;
79616;SDS011;69097;52.132;5.422;2023-07-13T03:08:09;8.95;;;1.85;;
79616;SDS011;69097;52.132;5.422;2023-07-13T03:13:03;8.73;;;1.95;;
79616;SDS011;69097;52.132;5.422;2023-07-13T03:15:30;9.60;;;2.22;;
79616;SDS011;69097;52.132;5.422;2023-07-13T03:17:56;9.88;;;1.88;;
79616;SDS011;69097;52.132;5.422;2023-07-13T03:20:23;5.75;;;1.33;;
79616;SDS011;69097;52.132;5.422;2023-07-13T03:22:49;7.80;;;2.22;;
79616;SDS011;69097;52.132;5.422;2023-07-13T03:25:16;5.93;;;1.73;;
79616;SDS011;69097;52.132;5.422;2023-07-13T03:27:43;6.95;;;1.63;;
79616;SDS011;69097;52.132;5.422;2023-07-13T03:30:09;10.43;;;1.67;;
79616;SDS011;69097;52.132;5.422;2023-07-13T03:32:36;6.30;;;1.75;;
79616;SDS011;69097;52.132;5.422;2023-07-13T03:35:03;9.50;;;1.67;;
79616;SDS011;69097;52.132;5.422;2023-07-13T03:37:31;6.35;;;1.63;;
79616;SDS011;69097;52.132;5.422;2023-07-13T03:39:58;9.15;;;1.90;;
79616;SDS011;69097;52.132;5.422;2023-07-13T03:42:25;8.70;;;1.92;;
79616;SDS011;69097;52.132;5.422;2023-07-13T03:44:52;8.38;;;1.50;;
79616;SDS011;69097;52.132;5.422;2023-07-13T03:47:18;8.20;;;1.77;;
79616;SDS011;69097;52.132;5.422;2023-07-13T03:49:45;10.15;;;1.88;;
79616;SDS011;69097;52.132;5.422;2023-07-13T03:52:12;9.27;;;1.45;;
79616;SDS011;69097;52.132;5.422;2023-07-13T03:54:38;10.65;;;2.45;;
79616;SDS011;69097;52.132;5.422;2023-07-13T03:57:05;7.88;;;1.80;;
79616;SDS011;69097;52.132;5.422;2023-07-13T03:59:32;8.63;;;1.85;;
79616;SDS011;69097;52.132;5.422;2023-07-13T04:02:00;9.90;;;2.15;;
79616;SDS011;69097;52.132;5.422;2023-07-13T04:04:27;8.70;;;1.90;;
79616;SDS011;69097;52.132;5.422;2023-07-13T04:06:54;10.95;;;1.98;;
79616;SDS011;69097;52.132;5.422;2023-07-13T04:09:21;9.50;;;2.17;;
79616;SDS011;69097;52.132;5.422;2023-07-13T04:11:47;9.52;;;1.83;;
79616;SDS011;69097;52.132;5.422;2023-07-13T04:14:14;8.05;;;1.67;;
79616;SDS011;69097;52.132;5.422;2023-07-13T04:16:41;8.75;;;1.95;;
79616;SDS011;69097;52.132;5.422;2023-07-13T04:19:08;9.80;;;2.53;;
79616;SDS011;69097;52.132;5.422;2023-07-13T04:21:36;8.57;;;2.83;;
79616;SDS011;69097;52.132;5.422;2023-07-13T04:24:03;10.02;;;1.92;;
79616;SDS011;69097;52.132;5.422;2023-07-13T04:26:32;6.80;;;1.85;;
79616;SDS011;69097;52.132;5.422;2023-07-13T04:29:02;8.00;;;2.25;;
79616;SDS011;69097;52.132;5.422;2023-07-13T04:31:30;13.38;;;2.38;;
79616;SDS011;69097;52.132;5.422;2023-07-13T04:33:58;12.45;;;2.15;;
79616;SDS011;69097;52.132;5.422;2023-07-13T04:36:24;13.55;;;2.22;;
79616;SDS011;69097;52.132;5.422;2023-07-13T04:38:53;12.05;;;2.15;;
79616;SDS011;69097;52.132;5.422;2023-07-13T04:41:22;14.25;;;3.33;;
79616;SDS011;69097;52.132;5.422;2023-07-13T04:43:49;12.10;;;2.22;;
79616;SDS011;69097;52.132;5.422;2023-07-13T04:46:16;7.22;;;2.45;;
79616;SDS011;69097;52.132;5.422;2023-07-13T04:48:45;10.15;;;1.92;;
79616;SDS011;69097;52.132;5.422;2023-07-13T04:51:12;11.88;;;2.53;;
79616;SDS011;69097;52.132;5.422;2023-07-13T04:53:38;10.35;;;2.65;;
79616;SDS011;69097;52.132;5.422;2023-07-13T04:56:05;14.45;;;2.38;;
79616;SDS011;69097;52.132;5.422;2023-07-13T04:58:32;12.35;;;2.45;;
79616;SDS011;69097;52.132;5.422;2023-07-13T05:01:02;13.55;;;2.50;;
79616;SDS011;69097;52.132;5.422;2023-07-13T05:03:31;10.18;;;2.50;;
79616;SDS011;69097;52.132;5.422;2023-07-13T05:06:00;11.68;;;2.40;;
79616;SDS011;69097;52.132;5.422;2023-07-13T05:08:29;13.32;;;2.80;;
79616;SDS011;69097;52.132;5.422;2023-07-13T05:10:55;13.02;;;3.05;;
79616;SDS011;69097;52.132;5.422;2023-07-13T05:13:22;12.15;;;2.65;;
79616;SDS011;69097;52.132;5.422;2023-07-13T05:15:56;11.18;;;2.95;;
79616;SDS011;69097;52.132;5.422;2023-07-13T05:18:27;16.73;;;2.90;;
79616;SDS011;69097;52.132;5.422;2023-07-13T05:21:04;13.10;;;3.25;;
79616;SDS011;69097;52.132;5.422;2023-07-13T05:23:34;11.60;;;2.97;;
79616;SDS011;69097;52.132;5.422;2023-07-13T05:26:02;16.70;;;2.97;;
79616;SDS011;69097;52.132;5.422;2023-07-13T05:28:32;13.48;;;3.10;;
79616;SDS011;69097;52.132;5.422;2023-07-13T05:30:59;17.88;;;3.10;;
79616;SDS011;69097;52.132;5.422;2023-07-13T05:33:26;17.65;;;3.42;;
79616;SDS011;69097;52.132;5.422;2023-07-13T05:35:53;9.73;;;3.45;;
79616;SDS011;69097;52.132;5.422;2023-07-13T05:38:20;13.40;;;3.42;;
79616;SDS011;69097;52.132;5.422;2023-07-13T05:40:47;18.20;;;4.30;;
79616;SDS011;69097;52.132;5.422;2023-07-13T05:43:14;17.73;;;3.88;;
79616;SDS011;69097;52.132;5.422;2023-07-13T05:45:41;19.73;;;4.32;;
79616;SDS011;69097;52.132;5.422;2023-07-13T05:48:07;14.90;;;4.65;;
79616;SDS011;69097;52.132;5.422;2023-07-13T05:50:34;17.35;;;4.00;;
79616;SDS011;69097;52.132;5.422;2023-07-13T05:53:00;15.20;;;4.35;;
79616;SDS011;69097;52.132;5.422;2023-07-13T05:55:27;15.55;;;6.30;;
79616;SDS011;69097;52.132;5.422;2023-07-13T05:57:54;15.15;;;4.68;;
79616;SDS011;69097;52.132;5.422;2023-07-13T06:00:20;19.52;;;5.53;;
79616;SDS011;69097;52.132;5.422;2023-07-13T06:02:47;14.95;;;4.82;;
79616;SDS011;69097;52.132;5.422;2023-07-13T06:05:14;22.50;;;5.43;;
79616;SDS011;69097;52.132;5.422;2023-07-13T06:07:40;14.27;;;4.57;;
79616;SDS011;69097;52.132;5.422;2023-07-13T06:12:34;24.33;;;5.85;;
79616;SDS011;69097;52.132;5.422;2023-07-13T06:15:01;12.80;;;4.47;;
79616;SDS011;69097;52.132;5.422;2023-07-13T06:17:30;14.98;;;4.72;;
79616;SDS011;69097;52.132;5.422;2023-07-13T06:19:57;16.27;;;5.47;;
79616;SDS011;69097;52.132;5.422;2023-07-13T06:22:23;18.95;;;6.00;;
79616;SDS011;69097;52.132;5.422;2023-07-13T06:24:50;18.65;;;5.75;;
79616;SDS011;69097;52.132;5.422;2023-07-13T06:27:17;18.48;;;5.65;;
79616;SDS011;69097;52.132;5.422;2023-07-13T06:29:43;16.67;;;6.47;;
79616;SDS011;69097;52.132;5.422;2023-07-13T06:32:11;17.40;;;6.55;;
79616;SDS011;69097;52.132;5.422;2023-07-13T06:34:37;17.38;;;6.15;;
79616;SDS011;69097;52.132;5.422;2023-07-13T06:37:08;16.85;;;5.82;;
79616;SDS011;69097;52.132;5.422;2023-07-13T06:39:35;17.13;;;5.75;;
79616;SDS011;69097;52.132;5.422;2023-07-13T06:42:02;17.30;;;5.88;;
79616;SDS011;69097;52.132;5.422;2023-07-13T06:44:29;15.63;;;6.18;;
79616;SDS011;69097;52.132;5.422;2023-07-13T06:46:55;21.75;;;6.47;;
79616;SDS011;69097;52.132;5.422;2023-07-13T06:49:22;16.10;;;5.65;;
79616;SDS011;69097;52.132;5.422;2023-07-13T06:51:48;15.18;;;5.68;;
79616;SDS011;69097;52.132;5.422;2023-07-13T06:54:15;15.40;;;5.97;;
79616;SDS011;69097;52.132;5.422;2023-07-13T06:56:42;15.57;;;5.90;;
79616;SDS011;69097;52.132;5.422;2023-07-13T06:59:08;14.63;;;5.93;;
79616;SDS011;69097;52.132;5.422;2023-07-13T07:01:35;18.20;;;6.75;;
79616;SDS011;69097;52.132;5.422;2023-07-13T07:04:05;15.15;;;5.88;;
79616;SDS011;69097;52.132;5.422;2023-07-13T07:06:32;17.92;;;6.40;;
79616;SDS011;69097;52.132;5.422;2023-07-13T07:08:58;16.55;;;6.13;;
79616;SDS011;69097;52.132;5.422;2023-07-13T07:11:25;17.05;;;6.15;;
79616;SDS011;69097;52.132;5.422;2023-07-13T07:13:52;20.25;;;7.60;;
79616;SDS011;69097;52.132;5.422;2023-07-13T07:16:20;18.88;;;6.25;;
79616;SDS011;69097;52.132;5.422;2023-07-13T07:18:48;16.40;;;5.75;;
79616;SDS011;69097;52.132;5.422;2023-07-13T07:21:15;19.23;;;6.35;;
79616;SDS011;69097;52.132;5.422;2023-07-13T07:23:42;19.25;;;7.15;;
79616;SDS011;69097;52.132;5.422;2023-07-13T07:26:09;21.67;;;6.85;;
79616;SDS011;69097;52.132;5.422;2023-07-13T07:28:36;18.17;;;6.45;;
79616;SDS011;69097;52.132;5.422;2023-07-13T07:31:06;17.02;;;6.78;;
79616;SDS011;69097;52.132;5.422;2023-07-13T07:33:35;14.88;;;6.25;;
79616;SDS011;69097;52.132;5.422;2023-07-13T07:36:02;19.50;;;6.50;;
79616;SDS011;69097;52.132;5.422;2023-07-13T07:38:32;16.48;;;7.22;;
79616;SDS011;69097;52.132;5.422;2023-07-13T07:41:00;18.13;;;6.80;;
79616;SDS011;69097;52.132;5.422;2023-07-13T07:43:31;14.25;;;7.10;;
79616;SDS011;69097;52.132;5.422;2023-07-13T07:45:58;18.00;;;6.85;;
79616;SDS011;69097;52.132;5.422;2023-07-13T07:48:28;13.52;;;6.57;;
79616;SDS011;69097;52.132;5.422;2023-07-13T07:50:55;15.27;;;6.18;;
79616;SDS011;69097;52.132;5.422;2023-07-13T07:53:22;20.73;;;7.47;;
79616;SDS011;69097;52.132;5.422;2023-07-13T07:55:48;17.65;;;6.53;;
79616;SDS011;69097;52.132;5.422;2023-07-13T07:58:18;16.90;;;6.50;;
79616;SDS011;69097;52.132;5.422;2023-07-13T08:00:47;17.02;;;6.50;;
79616;SDS011;69097;52.132;5.422;2023-07-13T08:03:17;18.33;;;6.40;;
79616;SDS011;69097;52.132;5.422;2023-07-13T08:05:55;15.95;;;6.90;;
79616;SDS011;69097;52.132;5.422;2023-07-13T08:08:25;12.50;;;6.13;;
79616;SDS011;69097;52.132;5.422;2023-07-13T08:10:52;14.38;;;6.95;;
79616;SDS011;69097;52.132;5.422;2023-07-13T08:13:23;19.80;;;6.65;;
79616;SDS011;69097;52.132;5.422;2023-07-13T08:15:50;14.38;;;5.85;;
79616;SDS011;69097;52.132;5.422;2023-07-13T08:18:17;18.73;;;5.90;;
79616;SDS011;69097;52.132;5.422;2023-07-13T08:20:43;16.13;;;5.85;;
79616;SDS011;69097;52.132;5.422;2023-07-13T08:23:10;16.48;;;6.22;;
79616;SDS011;69097;52.132;5.422;2023-07-13T08:25:37;15.05;;;5.70;;
79616;SDS011;69097;52.132;5.422;2023-07-13T08:28:04;17.08;;;4.63;;
79616;SDS011;69097;52.132;5.422;2023-07-13T08:30:32;16.02;;;4.78;;
79616;SDS011;69097;52.132;5.422;2023-07-13T08:32:58;16.58;;;5.68;;
79616;SDS011;69097;52.132;5.422;2023-07-13T08:35:25;14.10;;;4.35;;
79616;SDS011;69097;52.132;5.422;2023-07-13T08:37:54;12.20;;;4.15;;
79616;SDS011;69097;52.132;5.422;2023-07-13T08:40:25;15.30;;;4.38;;
79616;SDS011;69097;52.132;5.422;2023-07-13T08:42:55;14.13;;;4.03;;
79616;SDS011;69097;52.132;5.422;2023-07-13T08:45:30;9.52;;;2.95;;
79616;SDS011;69097;52.132;5.422;2023-07-13T08:48:27;11.77;;;4.50;;
79616;SDS011;69097;52.132;5.422;2023-07-13T08:51:34;9.10;;;3.30;;
79616;SDS011;69097;52.132;5.422;2023-07-13T08:54:29;8.65;;;2.78;;
79616;SDS011;69097;52.132;5.422;2023-07-13T08:57:12;6.22;;;1.80;;
79616;SDS011;69097;52.132;5.422;2023-07-13T08:59:44;7.05;;;1.73;;
79616;SDS011;69097;52.132;5.422;2023-07-13T09:02:32;4.57;;;1.67;;
79616;SDS011;69097;52.132;5.422;2023-07-13T09:05:36;5.72;;;1.45;;
79616;SDS011;69097;52.132;5.422;2023-07-13T09:11:40;6.93;;;1.77;;
79616;SDS011;69097;52.132;5.422;2023-07-13T09:14:54;7.53;;;1.92;;
79616;SDS011;69097;52.132;5.422;2023-07-13T09:17:55;6.65;;;1.77;;
79616;SDS011;69097;52.132;5.422;2023-07-13T09:20:37;6.75;;;2.25;;
79616;SDS011;69097;52.132;5.422;2023-07-13T09:23:28;8.88;;;2.13;;
79616;SDS011;69097;52.132;5.422;2023-07-13T09:26:02;9.13;;;2.35;;
79616;SDS011;69097;52.132;5.422;2023-07-13T09:28:34;6.05;;;2.30;;
79616;SDS011;69097;52.132;5.422;2023-07-13T09:31:15;8.65;;;2.22;;
79616;SDS011;69097;52.132;5.422;2023-07-13T09:36:46;5.43;;;1.65;;
79616;SDS011;69097;52.132;5.422;2023-07-13T09:39:55;6.80;;;1.88;;
79616;SDS011;69097;52.132;5.422;2023-07-13T09:42:15;7.70;;;1.60;;
79616;SDS011;69097;52.132;5.422;2023-07-13T09:45:00;5.63;;;1.60;;
79616;SDS011;69097;52.132;5.422;2023-07-13T09:47:32;7.32;;;1.55;;
79616;SDS011;69097;52.132;5.422;2023-07-13T09:50:06;8.70;;;2.00;;
79616;SDS011;69097;52.132;5.422;2023-07-13T09:52:51;6.32;;;2.05;;
79616;SDS011;69097;52.132;5.422;2023-07-13T09:57:53;9.77;;;2.05;;
79616;SDS011;69097;52.132;5.422;2023-07-13T10:00:21;8.02;;;2.03;;
79616;SDS011;69097;52.132;5.422;2023-07-13T10:03:26;7.18;;;1.73;;
79616;SDS011;69097;52.132;5.422;2023-07-13T10:05:48;7.30;;;1.83;;
79616;SDS011;69097;52.132;5.422;2023-07-13T10:08:23;6.03;;;1.52;;
79616;SDS011;69097;52.132;5.422;2023-07-13T10:11:09;8.10;;;2.70;;
79616;SDS011;69097;52.132;5.422;2023-07-13T10:16:31;5.93;;;2.00;;
79616;SDS011;69097;52.132;5.422;2023-07-13T10:19:09;5.47;;;1.90;;
79616;SDS011;69097;52.132;5.422;2023-07-13T10:21:50;6.60;;;1.92;;
79616;SDS011;69097;52.132;5.422;2023-07-13T10:24:29;5.95;;;2.08;;
79616;SDS011;69097;52.132;5.422;2023-07-13T10:29:53;12.57;;;2.22;;
79616;SDS011;69097;52.132;5.422;2023-07-13T10:32:35;6.88;;;2.65;;
79616;SDS011;69097;52.132;5.422;2023-07-13T10:35:11;7.70;;;2.15;;
79616;SDS011;69097;52.132;5.422;2023-07-13T10:40:40;6.53;;;2.10;;
79616;SDS011;69097;52.132;5.422;2023-07-13T10:43:43;8.68;;;2.33;;
79616;SDS011;69097;52.132;5.422;2023-07-13T10:46:15;9.27;;;3.10;;
79616;SDS011;69097;52.132;5.422;2023-07-13T10:48:48;6.78;;;2.78;;
79616;SDS011;69097;52.132;5.422;2023-07-13T10:51:21;7.43;;;2.63;;
79616;SDS011;69097;52.132;5.422;2023-07-13T10:57:06;7.43;;;2.15;;
79616;SDS011;69097;52.132;5.422;2023-07-13T11:00:16;8.18;;;1.98;;
79616;SDS011;69097;52.132;5.422;2023-07-13T11:02:59;9.80;;;1.70;;
79616;SDS011;69097;52.132;5.422;2023-07-13T11:05:36;6.43;;;1.83;;
79616;SDS011;69097;52.132;5.422;2023-07-13T11:14:26;5.07;;;1.25;;
79616;SDS011;69097;52.132;5.422;2023-07-13T11:17:03;4.70;;;1.52;;
79616;SDS011;69097;52.132;5.422;2023-07-13T11:20:19;4.90;;;1.85;;
79616;SDS011;69097;52.132;5.422;2023-07-13T11:25:44;8.48;;;3.03;;
79616;SDS011;69097;52.132;5.422;2023-07-13T11:28:22;5.85;;;1.63;;
79616;SDS011;69097;52.132;5.422;2023-07-13T11:31:12;5.90;;;2.35;;
79616;SDS011;69097;52.132;5.422;2023-07-13T11:33:49;7.07;;;1.90;;
79616;SDS011;69097;52.132;5.422;2023-07-13T11:39:12;5.65;;;1.98;;
79616;SDS011;69097;52.132;5.422;2023-07-13T11:41:53;8.35;;;2.13;;
79616;SDS011;69097;52.132;5.422;2023-07-13T11:44:28;6.15;;;2.50;;
79616;SDS011;69097;52.132;5.422;2023-07-13T11:47:00;6.35;;;2.03;;
79616;SDS011;69097;52.132;5.422;2023-07-13T11:49:49;7.18;;;2.50;;
79616;SDS011;69097;52.132;5.422;2023-07-13T11:52:33;7.18;;;2.40;;
79616;SDS011;69097;52.132;5.422;2023-07-13T11:55:04;4.85;;;1.77;;
79616;SDS011;69097;52.132;5.422;2023-07-13T11:57:51;7.57;;;2.08;;
79616;SDS011;69097;52.132;5.422;2023-07-13T12:00:31;6.93;;;1.90;;
79616;SDS011;69097;52.132;5.422;2023-07-13T12:03:36;6.07;;;2.83;;
79616;SDS011;69097;52.132;5.422;2023-07-13T12:06:31;8.27;;;2.60;;
79616;SDS011;69097;52.132;5.422;2023-07-13T12:11:42;6.30;;;2.08;;
79616;SDS011;69097;52.132;5.422;2023-07-13T12:14:13;8.40;;;2.40;;
79616;SDS011;69097;52.132;5.422;2023-07-13T12:16:59;7.55;;;2.22;;
79616;SDS011;69097;52.132;5.422;2023-07-13T12:19:27;7.50;;;2.65;;
79616;SDS011;69097;52.132;5.422;2023-07-13T12:21:56;6.90;;;2.67;;
79616;SDS011;69097;52.132;5.422;2023-07-13T12:24:25;7.63;;;2.42;;
79616;SDS011;69097;52.132;5.422;2023-07-13T12:26:53;7.82;;;2.42;;
79616;SDS011;69097;52.132;5.422;2023-07-13T12:31:52;8.15;;;2.33;;
79616;SDS011;69097;52.132;5.422;2023-07-13T12:34:20;11.20;;;2.60;;
79616;SDS011;69097;52.132;5.422;2023-07-13T12:39:24;8.75;;;2.90;;
79616;SDS011;69097;52.132;5.422;2023-07-13T12:42:00;6.57;;;2.55;;
79616;SDS011;69097;52.132;5.422;2023-07-13T12:44:43;8.65;;;2.78;;
79616;SDS011;69097;52.132;5.422;2023-07-13T12:47:11;9.05;;;2.60;;
79616;SDS011;69097;52.132;5.422;2023-07-13T12:49:40;6.32;;;2.10;;
79616;SDS011;69097;52.132;5.422;2023-07-13T12:52:16;6.68;;;2.22;;
79616;SDS011;69097;52.132;5.422;2023-07-13T12:54:55;10.50;;;2.00;;
79616;SDS011;69097;52.132;5.422;2023-07-13T12:59:58;6.20;;;1.80;;
79616;SDS011;69097;52.132;5.422;2023-07-13T13:02:30;6.38;;;2.30;;
79616;SDS011;69097;52.132;5.422;2023-07-13T13:05:00;7.13;;;2.13;;
79616;SDS011;69097;52.132;5.422;2023-07-13T13:07:29;7.57;;;2.10;;
79616;SDS011;69097;52.132;5.422;2023-07-13T13:09:56;6.43;;;2.60;;
79616;SDS011;69097;52.132;5.422;2023-07-13T13:12:22;10.00;;;2.00;;
79616;SDS011;69097;52.132;5.422;2023-07-13T13:14:52;7.80;;;2.20;;
79616;SDS011;69097;52.132;5.422;2023-07-13T13:17:19;7.65;;;2.13;;
79616;SDS011;69097;52.132;5.422;2023-07-13T13:19:50;7.57;;;2.20;;
79616;SDS011;69097;52.132;5.422;2023-07-13T13:22:20;9.68;;;2.42;;
79616;SDS011;69097;52.132;5.422;2023-07-13T13:24:47;6.00;;;2.03;;
79616;SDS011;69097;52.132;5.422;2023-07-13T13:27:18;5.55;;;2.05;;
79616;SDS011;69097;52.132;5.422;2023-07-13T13:29:47;6.78;;;1.98;;
79616;SDS011;69097;52.132;5.422;2023-07-13T13:32:16;5.30;;;2.03;;
79616;SDS011;69097;52.132;5.422;2023-07-13T13:34:43;6.28;;;2.30;;
79616;SDS011;69097;52.132;5.422;2023-07-13T13:37:16;7.82;;;2.63;;
79616;SDS011;69097;52.132;5.422;2023-07-13T13:39:45;6.13;;;1.88;;
79616;SDS011;69097;52.132;5.422;2023-07-13T13:42:33;7.32;;;1.83;;
79616;SDS011;69097;52.132;5.422;2023-07-13T13:44:59;5.93;;;1.80;;
79616;SDS011;69097;52.132;5.422;2023-07-13T13:47:30;5.88;;;1.73;;
79616;SDS011;69097;52.132;5.422;2023-07-13T13:49:59;6.28;;;1.83;;
79616;SDS011;69097;52.132;5.422;2023-07-13T13:52:26;10.50;;;2.38;;
79616;SDS011;69097;52.132;5.422;2023-07-13T13:54:53;5.43;;;2.00;;
79616;SDS011;69097;52.132;5.422;2023-07-13T13:57:23;5.75;;;2.03;;
79616;SDS011;69097;52.132;5.422;2023-07-13T13:59:50;6.93;;;1.77;;
79616;SDS011;69097;52.132;5.422;2023-07-13T14:02:22;7.45;;;1.92;;
79616;SDS011;69097;52.132;5.422;2023-07-13T14:04:56;6.75;;;2.28;;
79616;SDS011;69097;52.132;5.422;2023-07-13T14:07:25;5.57;;;2.03;;
79616;SDS011;69097;52.132;5.422;2023-07-13T14:09:54;4.85;;;1.75;;
79616;SDS011;69097;52.132;5.422;2023-07-13T14:12:25;4.78;;;1.77;;
79616;SDS011;69097;52.132;5.422;2023-07-13T14:14:55;7.30;;;2.05;;
79616;SDS011;69097;52.132;5.422;2023-07-13T14:17:25;6.90;;;1.77;;
79616;SDS011;69097;52.132;5.422;2023-07-13T14:19:53;7.38;;;2.50;;
79616;SDS011;69097;52.132;5.422;2023-07-13T14:22:24;6.43;;;2.42;;
79616;SDS011;69097;52.132;5.422;2023-07-13T14:24:52;7.85;;;2.80;;
79616;SDS011;69097;52.132;5.422;2023-07-13T14:27:20;6.70;;;2.10;;
79616;SDS011;69097;52.132;5.422;2023-07-13T14:29:48;7.18;;;1.83;;
79616;SDS011;69097;52.132;5.422;2023-07-13T14:32:14;6.15;;;2.10;;
79616;SDS011;69097;52.132;5.422;2023-07-13T14:34:41;6.43;;;1.98;;
79616;SDS011;69097;52.132;5.422;2023-07-13T14:37:12;6.55;;;1.77;;
79616;SDS011;69097;52.132;5.422;2023-07-13T14:39:41;5.47;;;1.50;;
79616;SDS011;69097;52.132;5.422;2023-07-13T14:42:10;6.63;;;2.03;;
79616;SDS011;69097;52.132;5.422;2023-07-13T14:44:38;5.82;;;1.83;;
79616;SDS011;69097;52.132;5.422;2023-07-13T14:47:06;6.85;;;2.15;;
79616;SDS011;69097;52.132;5.422;2023-07-13T14:49:35;8.40;;;2.08;;
79616;SDS011;69097;52.132;5.422;2023-07-13T14:52:13;4.68;;;1.73;;
79616;SDS011;69097;52.132;5.422;2023-07-13T14:54:44;6.18;;;1.60;;
79616;SDS011;69097;52.132;5.422;2023-07-13T14:57:16;7.70;;;1.55;;
79616;SDS011;69097;52.132;5.422;2023-07-13T14:59:47;6.65;;;1.70;;
79616;SDS011;69097;52.132;5.422;2023-07-13T15:02:31;7.13;;;1.95;;
79616;SDS011;69097;52.132;5.422;2023-07-13T15:05:00;6.13;;;2.05;;
79616;SDS011;69097;52.132;5.422;2023-07-13T15:07:28;5.13;;;1.98;;
79616;SDS011;69097;52.132;5.422;2023-07-13T15:09:54;5.90;;;1.70;;
79616;SDS011;69097;52.132;5.422;2023-07-13T15:12:21;5.82;;;2.42;;
79616;SDS011;69097;52.132;5.422;2023-07-13T15:14:47;5.82;;;1.35;;
79616;SDS011;69097;52.132;5.422;2023-07-13T15:17:34;4.68;;;1.38;;
79616;SDS011;69097;52.132;5.422;2023-07-13T15:20:14;5.65;;;1.60;;
79616;SDS011;69097;52.132;5.422;2023-07-13T15:22:44;7.97;;;1.85;;
79616;SDS011;69097;52.132;5.422;2023-07-13T15:25:16;6.68;;;1.60;;
79616;SDS011;69097;52.132;5.422;2023-07-13T15:27:44;5.88;;;1.90;;
79616;SDS011;69097;52.132;5.422;2023-07-13T15:30:12;6.63;;;1.98;;
79616;SDS011;69097;52.132;5.422;2023-07-13T15:32:42;6.57;;;1.83;;
79616;SDS011;69097;52.132;5.422;2023-07-13T15:35:14;8.10;;;1.65;;
79616;SDS011;69097;52.132;5.422;2023-07-13T15:37:44;7.97;;;1.70;;
79616;SDS011;69097;52.132;5.422;2023-07-13T15:42:39;6.95;;;1.90;;
79616;SDS011;69097;52.132;5.422;2023-07-13T15:45:14;6.22;;;1.73;;
79616;SDS011;69097;52.132;5.422;2023-07-13T15:47:49;5.47;;;1.50;;
79616;SDS011;69097;52.132;5.422;2023-07-13T15:50:18;6.70;;;1.42;;
79616;SDS011;69097;52.132;5.422;2023-07-13T15:52:50;5.18;;;1.73;;
79616;SDS011;69097;52.132;5.422;2023-07-13T15:55:18;6.28;;;1.63;;
79616;SDS011;69097;52.132;5.422;2023-07-13T15:57:49;6.50;;;1.23;;
79616;SDS011;69097;52.132;5.422;2023-07-13T16:00:19;5.75;;;1.30;;
79616;SDS011;69097;52.132;5.422;2023-07-13T16:02:50;5.18;;;1.23;;